This is the latest recevied weather packets stored in our database for station/object LU5DTF-1. If no packets are shown the sender has not sent any weather packets the latest 10 day(s).
| Time | Temp. | Humidity | Pressure | Rain* | Wind** | Luminosity | Snow |
|---|---|---|---|---|---|---|---|
| 1777744796 | 13.89° C | 63% | 1021.4 hPa | 0 mm | - | - | - |
| 1777744499 | 13.33° C | 59% | 1021.5 hPa | 0 mm | - | - | - |
| 1777743296 | 13.33° C | 63% | 1021.6 hPa | 0 mm | - | - | - |
| 1777742099 | 13.33° C | 62% | 1021.4 hPa | 0 mm | - | - | - |
| 1777741196 | 13.33° C | 63% | 1021.4 hPa | 0 mm | - | - | - |
| 1777739396 | 13.33° C | 59% | 1021.2 hPa | 0 mm | - | - | - |
| 1777738796 | 13.33° C | 58% | 1021.5 hPa | 0 mm | - | - | - |
| 1777738196 | 13.33° C | 58% | 1021.6 hPa | 0 mm | - | - | - |
| 1777737896 | 13.33° C | 59% | 1021.6 hPa | 0 mm | - | - | - |
| 1777737596 | 13.33° C | 58% | 1021.5 hPa | 0 mm | - | - | - |
| 1777736996 | 12.78° C | 58% | 1021.6 hPa | 0 mm | - | - | - |
| 1777736696 | 12.78° C | 58% | 1021.6 hPa | 0 mm | - | - | - |
| 1777736396 | 12.78° C | 58% | 1021.8 hPa | 0 mm | - | - | - |
| 1777735796 | 11.67° C | 68% | 1021.8 hPa | 0 mm | - | - | - |
| 1777735496 | 11.11° C | 71% | 1021.9 hPa | 0 mm | - | - | - |
| 1777735196 | 10.56° C | 72% | 1021.9 hPa | 0 mm | - | - | - |
| 1777734896 | 10° C | 72% | 1022 hPa | 0 mm | - | - | - |
| 1777734596 | 10° C | 72% | 1022 hPa | 0 mm | - | - | - |
| 1777733697 | 13.33° C | 58% | 1021.6 hPa | 0.25 mm | - | - | - |
| 1777733397 | 12.78° C | 58% | 1021.5 hPa | 0.25 mm | - | - | - |
| 1777733097 | 12.78° C | 54% | 1021.5 hPa | 0.25 mm | - | - | - |
| 1777732797 | 13.33° C | 56% | 1021.5 hPa | 0.25 mm | - | - | - |
| 1777732497 | 12.78° C | 57% | 1021.6 hPa | 0.25 mm | - | - | - |
| 1777732197 | 12.78° C | 58% | 1021.5 hPa | 0.25 mm | - | - | - |
| 1777731897 | 12.78° C | 60% | 1021.4 hPa | 0.25 mm | - | - | - |
* Rain latest hour (hover to see other rain measurements)
** Current wind speed in m/s (hover to see current wind gust speed)